sensor_id;sensor_type;location;lat;lon;timestamp;pressure;altitude;pressure_sealevel;temperature;humidity
3294;BME280;1659;51.470;6.770;2022-10-16T00:02:01;100946.34;;;13.46;99.33
3294;BME280;1659;51.470;6.770;2022-10-16T00:04:28;100949.03;;;13.44;99.37
3294;BME280;1659;51.470;6.770;2022-10-16T00:06:55;100958.88;;;13.40;99.38
3294;BME280;1659;51.470;6.770;2022-10-16T00:09:22;100953.63;;;13.37;99.18
3294;BME280;1659;51.470;6.770;2022-10-16T00:11:48;100952.84;;;13.34;99.37
3294;BME280;1659;51.470;6.770;2022-10-16T00:14:15;100956.41;;;13.33;99.80
3294;BME280;1659;51.470;6.770;2022-10-16T00:16:42;100951.16;;;13.30;99.36
3294;BME280;1659;51.470;6.770;2022-10-16T00:19:09;100950.31;;;13.28;99.59
3294;BME280;1659;51.470;6.770;2022-10-16T00:21:36;100954.75;;;13.27;99.69
3294;BME280;1659;51.470;6.770;2022-10-16T00:24:06;100962.75;;;13.26;99.45
3294;BME280;1659;51.470;6.770;2022-10-16T00:26:35;100960.13;;;13.24;99.94
3294;BME280;1659;51.470;6.770;2022-10-16T00:29:03;100958.44;;;13.21;99.56
3294;BME280;1659;51.470;6.770;2022-10-16T00:31:29;100958.44;;;13.21;99.59
3294;BME280;1659;51.470;6.770;2022-10-16T00:33:56;100962.81;;;13.22;99.89
3294;BME280;1659;51.470;6.770;2022-10-16T00:36:24;100955.78;;;13.21;99.78
3294;BME280;1659;51.470;6.770;2022-10-16T00:38:52;100954.03;;;13.20;99.67
3294;BME280;1659;51.470;6.770;2022-10-16T00:41:22;100952.31;;;13.19;99.88
3294;BME280;1659;51.470;6.770;2022-10-16T00:43:51;100955.78;;;13.21;99.71
3294;BME280;1659;51.470;6.770;2022-10-16T00:46:20;100960.13;;;13.24;99.97
3294;BME280;1659;51.470;6.770;2022-10-16T00:48:50;100953.84;;;13.28;100.00
3294;BME280;1659;51.470;6.770;2022-10-16T00:51:19;100959.13;;;13.30;99.69
3294;BME280;1659;51.470;6.770;2022-10-16T00:53:48;100955.53;;;13.32;99.84
3294;BME280;1659;51.470;6.770;2022-10-16T00:56:14;100942.22;;;13.34;99.82
3294;BME280;1659;51.470;6.770;2022-10-16T00:58:43;100940.31;;;13.39;99.64
3294;BME280;1659;51.470;6.770;2022-10-16T01:01:09;100948.22;;;13.42;99.39
3294;BME280;1659;51.470;6.770;2022-10-16T01:03:37;100949.06;;;13.43;99.59
3294;BME280;1659;51.470;6.770;2022-10-16T01:06:21;100957.91;;;13.43;99.79
3294;BME280;1659;51.470;6.770;2022-10-16T01:08:58;100961.28;;;13.48;99.46
3294;BME280;1659;51.470;6.770;2022-10-16T01:11:32;100950.69;;;13.48;99.45
3294;BME280;1659;51.470;6.770;2022-10-16T01:14:06;100949.78;;;13.49;99.54
3294;BME280;1659;51.470;6.770;2022-10-16T01:16:41;100952.47;;;13.48;99.49
3294;BME280;1659;51.470;6.770;2022-10-16T01:19:14;100961.28;;;13.48;99.37
3294;BME280;1659;51.470;6.770;2022-10-16T01:21:44;100954.28;;;13.46;99.20
3294;BME280;1659;51.470;6.770;2022-10-16T01:24:17;100951.53;;;13.49;99.56
3294;BME280;1659;51.470;6.770;2022-10-16T01:27:13;100960.53;;;13.43;99.18
3294;BME280;1659;51.470;6.770;2022-10-16T01:29:47;100963.28;;;13.40;99.73
3294;BME280;1659;51.470;6.770;2022-10-16T01:32:19;100965.25;;;13.33;99.35
3294;BME280;1659;51.470;6.770;2022-10-16T01:34:50;100959.19;;;13.27;99.29
3294;BME280;1659;51.470;6.770;2022-10-16T01:37:28;100960.19;;;13.22;99.96
3294;BME280;1659;51.470;6.770;2022-10-16T01:39:59;100968.13;;;13.22;100.00
3294;BME280;1659;51.470;6.770;2022-10-16T01:42:31;100953.97;;;13.23;100.00
3294;BME280;1659;51.470;6.770;2022-10-16T01:45:01;100953.91;;;13.27;100.00
3294;BME280;1659;51.470;6.770;2022-10-16T01:47:30;100951.19;;;13.28;100.00
3294;BME280;1659;51.470;6.770;2022-10-16T01:49:58;100944.91;;;13.32;100.00
3294;BME280;1659;51.470;6.770;2022-10-16T01:52:27;100936.97;;;13.32;100.00
3294;BME280;1659;51.470;6.770;2022-10-16T01:54:56;100942.19;;;13.35;100.00
3294;BME280;1659;51.470;6.770;2022-10-16T01:57:24;100949.22;;;13.36;100.00
3294;BME280;1659;51.470;6.770;2022-10-16T01:59:56;100959.75;;;13.39;100.00
3294;BME280;1659;51.470;6.770;2022-10-16T02:02:28;100954.41;;;13.41;99.82
3294;BME280;1659;51.470;6.770;2022-10-16T02:05:00;100957.94;;;13.41;99.73
3294;BME280;1659;51.470;6.770;2022-10-16T02:07:28;100970.31;;;13.43;100.00
3294;BME280;1659;51.470;6.770;2022-10-16T02:09:55;100972.03;;;13.44;99.61
3294;BME280;1659;51.470;6.770;2022-10-16T02:12:26;100974.59;;;13.47;99.75
3294;BME280;1659;51.470;6.770;2022-10-16T02:14:56;100961.34;;;13.47;99.34
3294;BME280;1659;51.470;6.770;2022-10-16T02:17:23;100972.97;;;13.43;99.24
3294;BME280;1659;51.470;6.770;2022-10-16T02:19:52;100977.47;;;13.39;99.19
3294;BME280;1659;51.470;6.770;2022-10-16T02:22:26;100977.53;;;13.37;99.01
3294;BME280;1659;51.470;6.770;2022-10-16T02:24:57;100977.56;;;13.36;99.23
3294;BME280;1659;51.470;6.770;2022-10-16T02:27:27;100972.28;;;13.34;99.41
3294;BME280;1659;51.470;6.770;2022-10-16T02:30:02;100975.72;;;13.38;99.42
3294;BME280;1659;51.470;6.770;2022-10-16T02:32:33;100980.09;;;13.40;99.32
3294;BME280;1659;51.470;6.770;2022-10-16T02:35:01;100976.50;;;13.41;99.04
3294;BME280;1659;51.470;6.770;2022-10-16T02:37:28;100973.00;;;13.41;99.21
3294;BME280;1659;51.470;6.770;2022-10-16T02:39:57;100973.00;;;13.41;98.88
3294;BME280;1659;51.470;6.770;2022-10-16T02:42:28;100974.78;;;13.40;98.79
3294;BME280;1659;51.470;6.770;2022-10-16T02:44:55;100972.22;;;13.37;98.84
3294;BME280;1659;51.470;6.770;2022-10-16T02:47:22;100964.28;;;13.36;98.84
3294;BME280;1659;51.470;6.770;2022-10-16T02:49:49;100970.47;;;13.36;98.79
3294;BME280;1659;51.470;6.770;2022-10-16T02:52:16;100966.91;;;13.37;99.05
3294;BME280;1659;51.470;6.770;2022-10-16T02:54:42;100959.81;;;13.38;98.69
3294;BME280;1659;51.470;6.770;2022-10-16T02:57:09;100966.81;;;13.40;98.50
3294;BME280;1659;51.470;6.770;2022-10-16T02:59:35;100973.84;;;13.41;98.77
3294;BME280;1659;51.470;6.770;2022-10-16T03:02:02;100965.91;;;13.41;98.79
3294;BME280;1659;51.470;6.770;2022-10-16T03:04:29;100970.31;;;13.43;98.57
3294;BME280;1659;51.470;6.770;2022-10-16T03:06:56;100981.75;;;13.45;98.40
3294;BME280;1659;51.470;6.770;2022-10-16T03:09:22;100972.03;;;13.44;97.95
3294;BME280;1659;51.470;6.770;2022-10-16T03:11:49;100978.22;;;13.44;98.00
3294;BME280;1659;51.470;6.770;2022-10-16T03:14:16;100975.63;;;13.43;98.19
3294;BME280;1659;51.470;6.770;2022-10-16T03:16:42;100983.63;;;13.41;97.73
3294;BME280;1659;51.470;6.770;2022-10-16T03:19:09;100978.31;;;13.41;98.13
3294;BME280;1659;51.470;6.770;2022-10-16T03:21:36;100975.63;;;13.43;97.64
3294;BME280;1659;51.470;6.770;2022-10-16T03:24:04;100977.41;;;13.42;97.65
3294;BME280;1659;51.470;6.770;2022-10-16T03:26:30;100972.97;;;13.43;97.62
3294;BME280;1659;51.470;6.770;2022-10-16T03:28:57;100972.97;;;13.43;97.34
3294;BME280;1659;51.470;6.770;2022-10-16T03:31:23;100974.75;;;13.42;97.82
3294;BME280;1659;51.470;6.770;2022-10-16T03:33:50;100982.75;;;13.40;97.34
3294;BME280;1659;51.470;6.770;2022-10-16T03:36:16;100975.72;;;13.38;97.70
3294;BME280;1659;51.470;6.770;2022-10-16T03:38:44;100983.72;;;13.36;97.53
3294;BME280;1659;51.470;6.770;2022-10-16T03:41:11;100969.63;;;13.34;97.60
3294;BME280;1659;51.470;6.770;2022-10-16T03:43:38;100972.31;;;13.33;97.37
3294;BME280;1659;51.470;6.770;2022-10-16T03:46:05;100981.22;;;13.32;97.13
3294;BME280;1659;51.470;6.770;2022-10-16T03:48:31;100987.44;;;13.29;97.27
3294;BME280;1659;51.470;6.770;2022-10-16T03:50:58;100988.41;;;13.27;97.27
3294;BME280;1659;51.470;6.770;2022-10-16T03:53:25;100987.56;;;13.25;97.19
3294;BME280;1659;51.470;6.770;2022-10-16T03:55:53;100996.47;;;13.22;97.41
3294;BME280;1659;51.470;6.770;2022-10-16T03:58:19;100999.19;;;13.19;97.47
3294;BME280;1659;51.470;6.770;2022-10-16T04:00:46;100992.13;;;13.19;97.00
3294;BME280;1659;51.470;6.770;2022-10-16T04:03:13;100991.19;;;13.20;97.37
3294;BME280;1659;51.470;6.770;2022-10-16T04:05:40;100985.88;;;13.20;97.35
3294;BME280;1659;51.470;6.770;2022-10-16T04:08:06;100985.84;;;13.22;97.00
3294;BME280;1659;51.470;6.770;2022-10-16T04:10:33;100998.22;;;13.23;96.93
3294;BME280;1659;51.470;6.770;2022-10-16T04:13:01;101004.41;;;13.23;97.06
3294;BME280;1659;51.470;6.770;2022-10-16T04:15:28;101000.78;;;13.26;96.62
3294;BME280;1659;51.470;6.770;2022-10-16T04:17:54;101002.53;;;13.27;96.73
3294;BME280;1659;51.470;6.770;2022-10-16T04:20:21;101015.75;;;13.29;96.56
3294;BME280;1659;51.470;6.770;2022-10-16T04:22:47;101007.84;;;13.27;96.59
3294;BME280;1659;51.470;6.770;2022-10-16T04:25:14;101009.63;;;13.27;96.04
3294;BME280;1659;51.470;6.770;2022-10-16T04:27:40;101006.97;;;13.27;96.29
3294;BME280;1659;51.470;6.770;2022-10-16T04:30:09;101014.03;;;13.26;96.16
3294;BME280;1659;51.470;6.770;2022-10-16T04:32:36;101028.25;;;13.25;96.27
3294;BME280;1659;51.470;6.770;2022-10-16T04:35:03;101022.09;;;13.23;96.37
3294;BME280;1659;51.470;6.770;2022-10-16T04:37:30;101030.97;;;13.22;96.35
3294;BME280;1659;51.470;6.770;2022-10-16T04:39:56;101041.66;;;13.19;96.16
3294;BME280;1659;51.470;6.770;2022-10-16T04:42:23;101041.75;;;13.16;96.25
3294;BME280;1659;51.470;6.770;2022-10-16T04:44:49;101033.81;;;13.14;96.45
3294;BME280;1659;51.470;6.770;2022-10-16T04:47:17;101034.75;;;13.12;96.55
3294;BME280;1659;51.470;6.770;2022-10-16T04:49:44;101036.53;;;13.11;96.47
3294;BME280;1659;51.470;6.770;2022-10-16T04:52:10;101039.19;;;13.11;96.42
3294;BME280;1659;51.470;6.770;2022-10-16T04:54:36;101039.19;;;13.11;96.27
3294;BME280;1659;51.470;6.770;2022-10-16T04:57:03;101045.38;;;13.12;96.16
3294;BME280;1659;51.470;6.770;2022-10-16T04:59:30;101050.69;;;13.12;96.31
3294;BME280;1659;51.470;6.770;2022-10-16T05:01:56;101051.56;;;13.12;96.26
3294;BME280;1659;51.470;6.770;2022-10-16T05:04:24;101058.63;;;13.12;96.36
3294;BME280;1659;51.470;6.770;2022-10-16T05:06:51;101062.19;;;13.12;96.13
3294;BME280;1659;51.470;6.770;2022-10-16T05:09:17;101061.25;;;13.13;96.30
3294;BME280;1659;51.470;6.770;2022-10-16T05:11:44;101060.25;;;13.17;95.88
3294;BME280;1659;51.470;6.770;2022-10-16T05:14:10;101075.25;;;13.20;95.60
3294;BME280;1659;51.470;6.770;2022-10-16T05:16:37;101070.84;;;13.19;95.89
3294;BME280;1659;51.470;6.770;2022-10-16T05:19:03;101069.09;;;13.19;95.97
3294;BME280;1659;51.470;6.770;2022-10-16T05:21:31;101067.31;;;13.18;95.88
3294;BME280;1659;51.470;6.770;2022-10-16T05:23:58;101071.72;;;13.19;95.72
3294;BME280;1659;51.470;6.770;2022-10-16T05:26:24;101072.59;;;13.20;95.78
3294;BME280;1659;51.470;6.770;2022-10-16T05:28:51;101074.34;;;13.21;95.67
3294;BME280;1659;51.470;6.770;2022-10-16T05:31:17;101076.13;;;13.20;95.81
3294;BME280;1659;51.470;6.770;2022-10-16T05:33:44;101074.38;;;13.19;95.77
3294;BME280;1659;51.470;6.770;2022-10-16T05:36:11;101072.63;;;13.18;95.64
3294;BME280;1659;51.470;6.770;2022-10-16T05:38:39;101072.63;;;13.18;95.81
3294;BME280;1659;51.470;6.770;2022-10-16T05:41:06;101087.63;;;13.21;95.89
3294;BME280;1659;51.470;6.770;2022-10-16T05:43:32;101085.88;;;13.20;95.65
3294;BME280;1659;51.470;6.770;2022-10-16T05:46:01;101093.81;;;13.20;95.43
3294;BME280;1659;51.470;6.770;2022-10-16T05:48:29;101092.03;;;13.20;95.71
3294;BME280;1659;51.470;6.770;2022-10-16T05:50:59;101086.72;;;13.20;95.74
3294;BME280;1659;51.470;6.770;2022-10-16T05:53:27;101101.81;;;13.18;95.36
3294;BME280;1659;51.470;6.770;2022-10-16T05:55:55;101103.66;;;13.16;95.55
3294;BME280;1659;51.470;6.770;2022-10-16T05:58:23;101117.84;;;13.14;95.76
3294;BME280;1659;51.470;6.770;2022-10-16T06:00:54;101116.13;;;13.13;95.55
3294;BME280;1659;51.470;6.770;2022-10-16T06:03:21;101122.38;;;13.09;95.79
3294;BME280;1659;51.470;6.770;2022-10-16T06:05:47;101120.66;;;13.08;95.84
3294;BME280;1659;51.470;6.770;2022-10-16T06:08:14;101137.47;;;13.07;95.83
3294;BME280;1659;51.470;6.770;2022-10-16T06:10:41;101126.84;;;13.07;95.50
3294;BME280;1659;51.470;6.770;2022-10-16T06:13:10;101128.63;;;13.08;95.63
3294;BME280;1659;51.470;6.770;2022-10-16T06:15:37;101131.31;;;13.06;96.03
3294;BME280;1659;51.470;6.770;2022-10-16T06:18:04;101141.91;;;13.06;95.86
3294;BME280;1659;51.470;6.770;2022-10-16T06:20:30;101133.06;;;13.07;95.78
3294;BME280;1659;51.470;6.770;2022-10-16T06:22:57;101141.78;;;13.12;95.93
3294;BME280;1659;51.470;6.770;2022-10-16T06:25:23;101143.47;;;13.15;95.57
3294;BME280;1659;51.470;6.770;2022-10-16T06:27:50;101142.59;;;13.16;95.83
3294;BME280;1659;51.470;6.770;2022-10-16T06:30:18;101138.16;;;13.16;95.70
3294;BME280;1659;51.470;6.770;2022-10-16T06:32:44;101154.03;;;13.18;95.64
3294;BME280;1659;51.470;6.770;2022-10-16T06:35:11;101149.59;;;13.18;95.87
3294;BME280;1659;51.470;6.770;2022-10-16T06:37:37;101152.16;;;13.23;95.71
3294;BME280;1659;51.470;6.770;2022-10-16T06:40:05;101167.06;;;13.27;95.54
3294;BME280;1659;51.470;6.770;2022-10-16T06:42:31;101166.13;;;13.31;95.75
3294;BME280;1659;51.470;6.770;2022-10-16T06:44:58;101168.66;;;13.36;95.61
3294;BME280;1659;51.470;6.770;2022-10-16T06:47:27;101173.88;;;13.40;95.33
3294;BME280;1659;51.470;6.770;2022-10-16T06:49:53;101184.47;;;13.42;95.26
3294;BME280;1659;51.470;6.770;2022-10-16T06:52:20;101186.19;;;13.43;95.23
3294;BME280;1659;51.470;6.770;2022-10-16T06:54:46;101198.59;;;13.43;95.32
3294;BME280;1659;51.470;6.770;2022-10-16T06:57:13;101204.78;;;13.43;95.18
3294;BME280;1659;51.470;6.770;2022-10-16T06:59:39;101203.06;;;13.42;95.10
3294;BME280;1659;51.470;6.770;2022-10-16T07:02:06;101214.63;;;13.38;95.41
3294;BME280;1659;51.470;6.770;2022-10-16T07:04:35;101216.41;;;13.37;95.33
3294;BME280;1659;51.470;6.770;2022-10-16T07:07:02;101219.00;;;13.40;95.21
3294;BME280;1659;51.470;6.770;2022-10-16T07:09:28;101230.47;;;13.43;95.47
3294;BME280;1659;51.470;6.770;2022-10-16T07:11:55;101238.34;;;13.47;95.33
3294;BME280;1659;51.470;6.770;2022-10-16T07:14:24;101234.66;;;13.53;95.00
3294;BME280;1659;51.470;6.770;2022-10-16T07:16:52;101247.88;;;13.56;94.72
3294;BME280;1659;51.470;6.770;2022-10-16T07:19:19;101246.06;;;13.56;95.09
3294;BME280;1659;51.470;6.770;2022-10-16T07:21:47;101246.94;;;13.57;94.88
3294;BME280;1659;51.470;6.770;2022-10-16T07:24:15;101241.50;;;13.63;95.08
3294;BME280;1659;51.470;6.770;2022-10-16T07:26:43;101246.66;;;13.69;95.02
3294;BME280;1659;51.470;6.770;2022-10-16T07:29:12;101257.03;;;13.78;94.64
3294;BME280;1659;51.470;6.770;2022-10-16T07:31:39;101255.03;;;13.88;94.50
3294;BME280;1659;51.470;6.770;2022-10-16T07:34:06;101253.88;;;14.00;94.47
3294;BME280;1659;51.470;6.770;2022-10-16T07:36:33;101247.44;;;14.09;94.03
3294;BME280;1659;51.470;6.770;2022-10-16T07:39:01;101254.03;;;14.28;93.68
3294;BME280;1659;51.470;6.770;2022-10-16T07:41:28;101259.50;;;14.88;92.87
3294;BME280;1659;51.470;6.770;2022-10-16T07:43:55;101264.09;;;15.71;90.06
3294;BME280;1659;51.470;6.770;2022-10-16T07:46:25;101267.81;;;16.47;87.46
3294;BME280;1659;51.470;6.770;2022-10-16T07:48:52;101259.44;;;17.06;85.44
3294;BME280;1659;51.470;6.770;2022-10-16T07:51:20;101261.31;;;17.50;83.36
3294;BME280;1659;51.470;6.770;2022-10-16T07:53:48;101261.03;;;18.02;81.99
3294;BME280;1659;51.470;6.770;2022-10-16T07:56:17;101283.19;;;18.46;80.55
3294;BME280;1659;51.470;6.770;2022-10-16T07:58:44;101289.31;;;18.69;78.58
3294;BME280;1659;51.470;6.770;2022-10-16T08:01:13;101284.34;;;19.01;77.88
3294;BME280;1659;51.470;6.770;2022-10-16T08:03:41;101294.75;;;19.28;77.05
3294;BME280;1659;51.470;6.770;2022-10-16T08:06:08;101291.13;;;19.48;76.52
3294;BME280;1659;51.470;6.770;2022-10-16T08:08:34;101285.75;;;19.86;75.96
3294;BME280;1659;51.470;6.770;2022-10-16T08:11:01;101298.00;;;20.09;75.39
3294;BME280;1659;51.470;6.770;2022-10-16T08:13:30;101298.16;;;20.23;73.74
3294;BME280;1659;51.470;6.770;2022-10-16T08:15:57;101291.16;;;20.21;72.06
3294;BME280;1659;51.470;6.770;2022-10-16T08:18:23;101303.09;;;20.32;72.20
3294;BME280;1659;51.470;6.770;2022-10-16T08:20:55;101317.47;;;20.66;72.02
3294;BME280;1659;51.470;6.770;2022-10-16T08:23:22;101320.19;;;21.00;71.75
3294;BME280;1659;51.470;6.770;2022-10-16T08:25:48;101321.22;;;21.30;71.44
3294;BME280;1659;51.470;6.770;2022-10-16T08:28:15;101329.94;;;21.52;70.72
3294;BME280;1659;51.470;6.770;2022-10-16T08:30:43;101329.25;;;21.48;70.95
3294;BME280;1659;51.470;6.770;2022-10-16T08:33:10;101332.81;;;21.64;71.04
3294;BME280;1659;51.470;6.770;2022-10-16T08:35:36;101343.53;;;21.96;70.40
3294;BME280;1659;51.470;6.770;2022-10-16T08:38:03;101336.69;;;22.06;69.62
3294;BME280;1659;51.470;6.770;2022-10-16T08:40:31;101336.84;;;22.19;69.35
3294;BME280;1659;51.470;6.770;2022-10-16T08:43:24;101341.41;;;22.49;68.59
3294;BME280;1659;51.470;6.770;2022-10-16T08:46:15;101365.78;;;22.62;67.43
3294;BME280;1659;51.470;6.770;2022-10-16T08:48:48;101357.00;;;22.58;68.12
3294;BME280;1659;51.470;6.770;2022-10-16T08:51:19;101357.09;;;22.57;66.62
3294;BME280;1659;51.470;6.770;2022-10-16T08:53:51;101361.72;;;22.55;67.11
3294;BME280;1659;51.470;6.770;2022-10-16T08:56:19;101364.94;;;22.76;66.57
3294;BME280;1659;51.470;6.770;2022-10-16T08:58:46;101367.97;;;22.86;66.42
3294;BME280;1659;51.470;6.770;2022-10-16T09:01:16;101365.44;;;22.83;65.38
3294;BME280;1659;51.470;6.770;2022-10-16T09:04:02;101371.34;;;22.59;64.96
3294;BME280;1659;51.470;6.770;2022-10-16T09:06:42;101374.09;;;22.73;65.74
3294;BME280;1659;51.470;6.770;2022-10-16T09:09:23;101379.50;;;22.88;64.61
3294;BME280;1659;51.470;6.770;2022-10-16T09:12:00;101374.22;;;23.00;64.63
3294;BME280;1659;51.470;6.770;2022-10-16T09:14:41;101383.72;;;22.92;64.12
3294;BME280;1659;51.470;6.770;2022-10-16T09:17:22;101385.19;;;22.97;64.34
3294;BME280;1659;51.470;6.770;2022-10-16T09:19:56;101386.13;;;23.12;64.29
3294;BME280;1659;51.470;6.770;2022-10-16T09:22:27;101385.72;;;23.47;64.48
3294;BME280;1659;51.470;6.770;2022-10-16T09:24:59;101380.41;;;23.60;63.95
3294;BME280;1659;51.470;6.770;2022-10-16T09:27:26;101386.00;;;23.43;63.24
3294;BME280;1659;51.470;6.770;2022-10-16T09:29:53;101383.22;;;23.30;63.17
3294;BME280;1659;51.470;6.770;2022-10-16T09:32:22;101386.09;;;23.70;63.08
3294;BME280;1659;51.470;6.770;2022-10-16T09:34:50;101390.72;;;23.68;61.66
3294;BME280;1659;51.470;6.770;2022-10-16T09:37:20;101390.81;;;23.52;61.47
3294;BME280;1659;51.470;6.770;2022-10-16T09:39:49;101405.38;;;23.49;61.26
3294;BME280;1659;51.470;6.770;2022-10-16T09:42:17;101397.69;;;23.58;61.65
3294;BME280;1659;51.470;6.770;2022-10-16T09:44:47;101388.69;;;23.71;60.67
3294;BME280;1659;51.470;6.770;2022-10-16T09:47:16;101397.00;;;23.83;60.47
3294;BME280;1659;51.470;6.770;2022-10-16T09:49:57;101393.25;;;23.85;60.47
3294;BME280;1659;51.470;6.770;2022-10-16T09:52:26;101403.06;;;23.86;59.47
3294;BME280;1659;51.470;6.770;2022-10-16T09:54:54;101392.75;;;23.64;59.26
3294;BME280;1659;51.470;6.770;2022-10-16T09:57:21;101405.94;;;23.69;59.05
3294;BME280;1659;51.470;6.770;2022-10-16T09:59:50;101408.81;;;23.66;59.38
3294;BME280;1659;51.470;6.770;2022-10-16T10:02:18;101407.78;;;23.68;59.71
3294;BME280;1659;51.470;6.770;2022-10-16T10:05:03;101402.69;;;23.92;59.00
3294;BME280;1659;51.470;6.770;2022-10-16T10:07:32;101416.41;;;24.02;58.57
3294;BME280;1659;51.470;6.770;2022-10-16T10:10:01;101395.63;;;23.75;58.84
3294;BME280;1659;51.470;6.770;2022-10-16T10:12:29;101418.66;;;23.96;59.19
3294;BME280;1659;51.470;6.770;2022-10-16T10:14:58;101399.84;;;24.08;58.03
3294;BME280;1659;51.470;6.770;2022-10-16T10:17:29;101402.78;;;24.45;57.58
3294;BME280;1659;51.470;6.770;2022-10-16T10:19:57;101405.50;;;24.85;57.21
3294;BME280;1659;51.470;6.770;2022-10-16T10:22:31;101401.19;;;25.09;56.18
3294;BME280;1659;51.470;6.770;2022-10-16T10:25:23;101412.53;;;24.88;55.53
3294;BME280;1659;51.470;6.770;2022-10-16T10:28:17;101403.56;;;24.87;56.10
3294;BME280;1659;51.470;6.770;2022-10-16T10:30:56;101411.91;;;25.10;56.07
3294;BME280;1659;51.470;6.770;2022-10-16T10:33:34;101411.91;;;25.23;55.94
3294;BME280;1659;51.470;6.770;2022-10-16T10:36:13;101408.81;;;25.29;55.00
3294;BME280;1659;51.470;6.770;2022-10-16T10:38:49;101407.34;;;25.75;54.57
3294;BME280;1659;51.470;6.770;2022-10-16T10:44:15;101415.66;;;25.85;53.53
3294;BME280;1659;51.470;6.770;2022-10-16T10:46:48;101412.38;;;26.05;53.43
3294;BME280;1659;51.470;6.770;2022-10-16T10:49:31;101414.84;;;26.08;53.29
3294;BME280;1659;51.470;6.770;2022-10-16T10:52:13;101419.81;;;26.14;53.11
3294;BME280;1659;51.470;6.770;2022-10-16T10:54:51;101413.25;;;25.93;52.97
3294;BME280;1659;51.470;6.770;2022-10-16T10:57:27;101422.84;;;25.73;52.85
3294;BME280;1659;51.470;6.770;2022-10-16T11:00:03;101426.44;;;25.60;52.64
3294;BME280;1659;51.470;6.770;2022-10-16T11:02:38;101425.00;;;25.68;52.66
3294;BME280;1659;51.470;6.770;2022-10-16T11:05:33;101417.53;;;25.71;52.49
3294;BME280;1659;51.470;6.770;2022-10-16T11:08:09;101410.03;;;26.25;51.87
3294;BME280;1659;51.470;6.770;2022-10-16T11:10:44;101406.56;;;26.23;49.85
3294;BME280;1659;51.470;6.770;2022-10-16T11:13:21;101426.81;;;25.80;50.06
3294;BME280;1659;51.470;6.770;2022-10-16T11:15:54;101421.59;;;25.27;50.99
3294;BME280;1659;51.470;6.770;2022-10-16T11:18:29;101430.75;;;24.59;51.71
3294;BME280;1659;51.470;6.770;2022-10-16T11:21:00;101427.84;;;24.47;52.34
3294;BME280;1659;51.470;6.770;2022-10-16T11:23:31;101426.56;;;24.67;52.40
3294;BME280;1659;51.470;6.770;2022-10-16T11:26:08;101432.66;;;24.97;51.87
3294;BME280;1659;51.470;6.770;2022-10-16T11:28:42;101423.72;;;25.22;51.06
3294;BME280;1659;51.470;6.770;2022-10-16T11:31:13;101436.22;;;25.87;50.71
3294;BME280;1659;51.470;6.770;2022-10-16T11:33:45;101422.88;;;26.34;49.98
3294;BME280;1659;51.470;6.770;2022-10-16T11:36:16;101435.69;;;26.32;50.34
3294;BME280;1659;51.470;6.770;2022-10-16T11:38:50;101437.50;;;26.55;49.55
3294;BME280;1659;51.470;6.770;2022-10-16T11:41:26;101429.88;;;26.49;49.55
3294;BME280;1659;51.470;6.770;2022-10-16T11:44:03;101432.56;;;26.25;49.55
3294;BME280;1659;51.470;6.770;2022-10-16T11:46:35;101429.84;;;25.75;50.00
3294;BME280;1659;51.470;6.770;2022-10-16T11:49:10;101437.19;;;24.96;51.13
3294;BME280;1659;51.470;6.770;2022-10-16T11:51:41;101436.69;;;24.37;52.23
3294;BME280;1659;51.470;6.770;2022-10-16T11:54:20;101443.91;;;23.80;53.08
3294;BME280;1659;51.470;6.770;2022-10-16T11:56:52;101443.53;;;23.86;53.12
3294;BME280;1659;51.470;6.770;2022-10-16T11:59:25;101452.13;;;23.93;52.70
3294;BME280;1659;51.470;6.770;2022-10-16T12:02:00;101451.38;;;24.60;51.66
3294;BME280;1659;51.470;6.770;2022-10-16T12:04:40;101451.88;;;25.45;50.64
3294;BME280;1659;51.470;6.770;2022-10-16T12:07:13;101456.94;;;26.25;49.68
3294;BME280;1659;51.470;6.770;2022-10-16T12:09:41;101458.06;;;26.71;48.32
3294;BME280;1659;51.470;6.770;2022-10-16T12:12:27;101455.09;;;26.98;47.79
3294;BME280;1659;51.470;6.770;2022-10-16T12:15:02;101454.88;;;27.12;47.36
3294;BME280;1659;51.470;6.770;2022-10-16T12:17:35;101454.03;;;27.12;47.43
3294;BME280;1659;51.470;6.770;2022-10-16T12:20:20;101449.41;;;27.37;47.17
3294;BME280;1659;51.470;6.770;2022-10-16T12:22:48;101452.38;;;26.98;47.80
3294;BME280;1659;51.470;6.770;2022-10-16T12:25:21;101455.00;;;27.22;47.31
3294;BME280;1659;51.470;6.770;2022-10-16T12:27:59;101449.66;;;27.34;46.01
3294;BME280;1659;51.470;6.770;2022-10-16T12:30:28;101450.72;;;26.36;46.49
3294;BME280;1659;51.470;6.770;2022-10-16T12:32:57;101457.13;;;25.85;47.24
3294;BME280;1659;51.470;6.770;2022-10-16T12:35:32;101462.09;;;25.14;47.91
3294;BME280;1659;51.470;6.770;2022-10-16T12:38:07;101467.53;;;24.74;48.67
3294;BME280;1659;51.470;6.770;2022-10-16T12:40:36;101455.34;;;24.81;48.96
3294;BME280;1659;51.470;6.770;2022-10-16T12:43:38;101453.78;;;25.17;48.21
3294;BME280;1659;51.470;6.770;2022-10-16T12:46:23;101454.31;;;25.10;48.63
3294;BME280;1659;51.470;6.770;2022-10-16T12:48:51;101451.28;;;25.01;48.94
3294;BME280;1659;51.470;6.770;2022-10-16T12:51:33;101451.81;;;25.06;48.30
3294;BME280;1659;51.470;6.770;2022-10-16T12:54:01;101465.88;;;24.59;49.25
3294;BME280;1659;51.470;6.770;2022-10-16T12:56:39;101470.50;;;24.57;48.86
3294;BME280;1659;51.470;6.770;2022-10-16T12:59:18;101463.50;;;25.07;48.30
3294;BME280;1659;51.470;6.770;2022-10-16T13:02:06;101466.69;;;26.04;47.12
3294;BME280;1659;51.470;6.770;2022-10-16T13:04:45;101457.31;;;26.93;45.98
3294;BME280;1659;51.470;6.770;2022-10-16T13:07:24;101456.41;;;26.92;45.67
3294;BME280;1659;51.470;6.770;2022-10-16T13:10:02;101456.69;;;27.01;44.88
3294;BME280;1659;51.470;6.770;2022-10-16T13:12:50;101459.09;;;26.57;44.98
3294;BME280;1659;51.470;6.770;2022-10-16T13:15:31;101454.75;;;26.79;45.28
3294;BME280;1659;51.470;6.770;2022-10-16T13:18:06;101450.03;;;27.05;44.13
3294;BME280;1659;51.470;6.770;2022-10-16T13:20:53;101448.06;;;27.42;43.89
3294;BME280;1659;51.470;6.770;2022-10-16T13:23:25;101452.16;;;27.93;43.70
3294;BME280;1659;51.470;6.770;2022-10-16T13:26:05;101462.25;;;28.14;43.21
3294;BME280;1659;51.470;6.770;2022-10-16T13:28:35;101466.16;;;28.32;43.26
3294;BME280;1659;51.470;6.770;2022-10-16T13:31:13;101472.63;;;27.97;43.67